createdAt,value
2022-09-13T00:00:42.641Z,999.54
2022-09-13T00:01:42.548Z,999.58
2022-09-13T00:02:42.464Z,999.52
2022-09-13T00:03:42.461Z,999.56
2022-09-13T00:04:42.552Z,999.54
2022-09-13T00:05:42.468Z,999.51
2022-09-13T00:06:42.417Z,999.57
2022-09-13T00:07:42.404Z,999.48
2022-09-13T00:08:42.464Z,999.51
2022-09-13T00:09:42.407Z,999.49
2022-09-13T00:10:42.386Z,999.49
2022-09-13T00:11:42.399Z,999.45
2022-09-13T00:12:42.363Z,999.41
2022-09-13T00:13:42.336Z,999.45
2022-09-13T00:14:42.337Z,999.38
2022-09-13T00:15:42.322Z,999.34
2022-09-13T00:16:42.355Z,999.33
2022-09-13T00:17:42.298Z,999.30
2022-09-13T00:18:42.331Z,999.29
2022-09-13T00:19:42.294Z,999.26
2022-09-13T00:20:42.279Z,999.24
2022-09-13T00:21:42.255Z,999.19
2022-09-13T00:22:42.250Z,999.17
2022-09-13T00:23:42.227Z,999.24
2022-09-13T00:24:42.231Z,999.13
2022-09-13T00:25:42.209Z,999.14
2022-09-13T00:26:42.195Z,999.11
2022-09-13T00:27:42.194Z,999.13
2022-09-13T00:28:42.228Z,999.15
2022-09-13T00:29:42.179Z,999.13
2022-09-13T00:30:42.159Z,999.09
2022-09-13T00:31:42.212Z,999.15
2022-09-13T00:32:42.126Z,999.15
2022-09-13T00:33:42.118Z,999.09
2022-09-13T00:34:42.130Z,999.09
2022-09-13T00:35:42.096Z,999.09
2022-09-13T00:36:42.190Z,999.12
2022-09-13T00:37:42.093Z,999.12
2022-09-13T00:38:42.161Z,999.13
2022-09-13T00:39:42.265Z,999.09
2022-09-13T00:40:42.041Z,999.09
2022-09-13T00:41:42.027Z,999.08
2022-09-13T00:42:42.019Z,999.10
2022-09-13T00:43:42.036Z,999.04
2022-09-13T00:44:42.017Z,999.02
2022-09-13T00:45:42.068Z,998.99
2022-09-13T00:46:41.976Z,998.99
2022-09-13T00:47:41.963Z,998.98
2022-09-13T00:48:41.967Z,998.99
2022-09-13T00:49:41.943Z,998.96
2022-09-13T00:50:41.945Z,999.00
2022-09-13T00:51:41.932Z,998.97
2022-09-13T00:52:46.576Z,998.96
2022-09-13T00:53:41.983Z,998.91
2022-09-13T00:54:41.895Z,998.90
2022-09-13T00:55:41.893Z,998.90
2022-09-13T00:56:41.865Z,998.93
2022-09-13T00:57:41.854Z,998.94
2022-09-13T00:58:41.852Z,998.92
2022-09-13T00:59:41.838Z,998.91
2022-09-13T01:00:41.892Z,998.89
2022-09-13T01:01:41.811Z,998.86
2022-09-13T01:02:41.802Z,998.87
2022-09-13T01:03:41.901Z,998.93
2022-09-13T01:04:41.774Z,998.83
2022-09-13T01:05:41.784Z,998.87
2022-09-13T01:06:41.764Z,998.86
2022-09-13T01:07:41.753Z,998.81
2022-09-13T01:08:41.764Z,998.79
2022-09-13T01:09:41.721Z,998.75
2022-09-13T01:10:41.709Z,998.82
2022-09-13T01:11:41.732Z,998.75
2022-09-13T01:12:41.713Z,998.84
2022-09-13T01:13:41.707Z,998.84
2022-09-13T01:14:41.695Z,998.85
2022-09-13T01:15:41.666Z,998.83
2022-09-13T01:16:44.808Z,998.81
2022-09-13T01:17:41.640Z,998.84
2022-09-13T01:18:41.621Z,998.80
2022-09-13T01:19:41.624Z,998.78
2022-09-13T01:20:41.615Z,998.74
2022-09-13T01:21:41.586Z,998.79
2022-09-13T01:22:41.581Z,998.71
2022-09-13T01:23:41.571Z,998.70
2022-09-13T01:24:41.655Z,998.75
2022-09-13T01:25:41.583Z,998.77
2022-09-13T01:26:41.530Z,998.75
2022-09-13T01:27:41.520Z,998.75
2022-09-13T01:28:41.528Z,998.74
2022-09-13T01:29:41.498Z,998.77
2022-09-13T01:30:41.489Z,998.78
2022-09-13T01:31:41.522Z,998.76
2022-09-13T01:32:41.494Z,998.75
2022-09-13T01:33:41.464Z,998.70
2022-09-13T01:34:41.443Z,998.72
2022-09-13T01:35:41.437Z,998.68
2022-09-13T01:36:41.434Z,998.73
2022-09-13T01:37:41.437Z,998.77
2022-09-13T01:38:41.433Z,998.74
2022-09-13T01:39:41.458Z,998.75
2022-09-13T01:40:41.393Z,998.85
2022-09-13T01:41:41.371Z,998.76
2022-09-13T01:42:41.365Z,998.73
2022-09-13T01:43:41.380Z,998.75
2022-09-13T01:44:41.337Z,998.76
2022-09-13T01:45:41.419Z,998.73
2022-09-13T01:46:41.324Z,998.70
2022-09-13T01:47:41.301Z,998.70
2022-09-13T01:48:41.362Z,998.69
2022-09-13T01:49:42.140Z,998.59
2022-09-13T01:50:41.315Z,998.60
2022-09-13T01:51:41.257Z,998.63
2022-09-13T01:52:41.263Z,998.57
2022-09-13T01:53:41.246Z,998.64
2022-09-13T01:54:41.239Z,998.60
2022-09-13T01:55:41.212Z,998.56
2022-09-13T01:56:41.233Z,998.59
2022-09-13T01:57:41.223Z,998.55
2022-09-13T01:58:41.176Z,998.58
2022-09-13T01:59:41.273Z,998.53
2022-09-13T02:00:41.180Z,998.52
2022-09-13T02:01:41.152Z,998.53
2022-09-13T02:02:41.134Z,998.50
2022-09-13T02:03:41.163Z,998.51
2022-09-13T02:04:41.127Z,998.50
2022-09-13T02:05:41.108Z,998.45
2022-09-13T02:06:41.119Z,998.41
2022-09-13T02:07:41.095Z,998.46
2022-09-13T02:08:41.068Z,998.40
2022-09-13T02:09:41.060Z,998.41
2022-09-13T02:10:41.046Z,998.42
2022-09-13T02:11:41.047Z,998.42
2022-09-13T02:12:41.110Z,998.44
2022-09-13T02:13:41.026Z,998.38
2022-09-13T02:14:41.013Z,998.44
2022-09-13T02:15:41.019Z,998.37
2022-09-13T02:16:41.065Z,998.35
2022-09-13T02:17:40.977Z,998.37
2022-09-13T02:18:40.963Z,998.35
2022-09-13T02:19:40.997Z,998.35
2022-09-13T02:20:40.941Z,998.35
2022-09-13T02:21:40.945Z,998.37
2022-09-13T02:22:40.915Z,998.38
2022-09-13T02:23:40.927Z,998.33
2022-09-13T02:24:40.936Z,998.35
2022-09-13T02:25:40.899Z,998.29
2022-09-13T02:26:40.879Z,998.26
2022-09-13T02:27:40.871Z,998.24
2022-09-13T02:28:40.878Z,998.21
2022-09-13T02:29:40.866Z,998.20
2022-09-13T02:30:40.866Z,998.23
2022-09-13T02:31:40.850Z,998.22
2022-09-13T02:32:40.815Z,998.20
2022-09-13T02:33:40.823Z,998.19
2022-09-13T02:34:40.795Z,998.14
2022-09-13T02:35:40.784Z,998.13
2022-09-13T02:36:40.773Z,998.08
2022-09-13T02:37:40.764Z,998.01
2022-09-13T02:38:40.752Z,998.04
2022-09-13T02:39:40.798Z,998.01
2022-09-13T02:40:40.739Z,998.04
2022-09-13T02:41:40.730Z,997.95
2022-09-13T02:42:40.731Z,997.98
2022-09-13T02:43:40.686Z,997.96
2022-09-13T02:44:40.753Z,997.93
2022-09-13T02:45:40.716Z,997.93
2022-09-13T02:46:40.667Z,997.86
2022-09-13T02:47:40.643Z,997.79
2022-09-13T02:48:40.693Z,997.78
2022-09-13T02:49:40.642Z,997.80
2022-09-13T02:50:40.635Z,997.79
2022-09-13T02:51:40.682Z,997.81
2022-09-13T02:52:40.612Z,997.82
2022-09-13T02:53:40.606Z,997.83
2022-09-13T02:54:40.646Z,997.83
2022-09-13T02:55:40.555Z,997.83
2022-09-13T02:56:40.547Z,997.90
2022-09-13T02:57:40.545Z,997.87
2022-09-13T02:58:40.533Z,997.93
2022-09-13T02:59:40.511Z,997.91
2022-09-13T03:00:40.562Z,997.91
2022-09-13T03:01:40.512Z,997.94
2022-09-13T03:02:40.497Z,997.97
2022-09-13T03:03:40.477Z,997.98
2022-09-13T03:04:40.475Z,997.94
2022-09-13T03:05:40.447Z,997.98
2022-09-13T03:06:40.458Z,997.99
2022-09-13T03:07:40.424Z,997.91
2022-09-13T03:08:40.426Z,997.93
2022-09-13T03:09:40.426Z,997.91
2022-09-13T03:10:40.409Z,997.91
2022-09-13T03:11:40.383Z,997.91
2022-09-13T03:12:40.371Z,997.94
2022-09-13T03:13:40.367Z,997.93
2022-09-13T03:14:40.372Z,997.92
2022-09-13T03:15:40.354Z,997.84
2022-09-13T03:16:40.415Z,997.84
2022-09-13T03:17:40.327Z,997.89
2022-09-13T03:18:40.305Z,997.91
2022-09-13T03:19:40.303Z,997.87
2022-09-13T03:20:40.300Z,997.88
2022-09-13T03:21:40.290Z,997.89
2022-09-13T03:22:40.257Z,997.82
2022-09-13T03:23:40.249Z,997.78
2022-09-13T03:24:40.234Z,997.85
2022-09-13T03:25:40.279Z,997.77
2022-09-13T03:26:40.232Z,997.81
2022-09-13T03:27:40.232Z,997.83
2022-09-13T03:28:40.251Z,997.78
2022-09-13T03:29:40.184Z,997.76
2022-09-13T03:30:40.608Z,997.78
2022-09-13T03:31:40.226Z,997.75
2022-09-13T03:32:40.178Z,997.78
2022-09-13T03:33:40.168Z,997.78
2022-09-13T03:34:40.162Z,997.76
2022-09-13T03:35:40.122Z,997.81
2022-09-13T03:36:40.112Z,997.81
2022-09-13T03:37:40.099Z,997.78
2022-09-13T03:38:40.102Z,997.73
2022-09-13T03:39:40.197Z,997.76
2022-09-13T03:40:40.067Z,997.72
2022-09-13T03:41:40.083Z,997.71
2022-09-13T03:42:40.057Z,997.76
2022-09-13T03:43:40.035Z,997.72
2022-09-13T03:44:40.052Z,997.68
2022-09-13T03:45:40.089Z,997.64
2022-09-13T03:46:40.002Z,997.67
2022-09-13T03:47:39.986Z,997.69
2022-09-13T03:48:40.095Z,997.73
2022-09-13T03:49:39.975Z,997.69
2022-09-13T03:50:39.977Z,997.64
2022-09-13T03:51:39.943Z,997.71
2022-09-13T03:52:44.495Z,997.66
2022-09-13T03:53:40.957Z,997.70
2022-09-13T03:54:39.937Z,997.67
2022-09-13T03:55:39.910Z,997.71
2022-09-13T03:56:39.906Z,997.67
2022-09-13T03:57:39.930Z,997.68
2022-09-13T03:58:39.866Z,997.66
2022-09-13T03:59:39.878Z,997.68
2022-09-13T04:00:39.855Z,997.66
2022-09-13T04:01:39.836Z,997.66
2022-09-13T04:02:39.850Z,997.63
2022-09-13T04:03:39.814Z,997.63
2022-09-13T04:04:39.833Z,997.57
2022-09-13T04:05:39.827Z,997.59
2022-09-13T04:06:39.814Z,997.58
2022-09-13T04:07:39.789Z,997.56
2022-09-13T04:08:39.770Z,997.55
2022-09-13T04:09:39.759Z,997.54
2022-09-13T04:10:39.828Z,997.61
2022-09-13T04:11:39.727Z,997.60
2022-09-13T04:12:39.718Z,997.60
2022-09-13T04:13:39.719Z,997.57
2022-09-13T04:14:39.692Z,997.55
2022-09-13T04:15:39.765Z,997.62
2022-09-13T04:16:39.746Z,997.54
2022-09-13T04:17:39.670Z,997.65
2022-09-13T04:18:39.654Z,997.57
2022-09-13T04:19:39.659Z,997.55
2022-09-13T04:20:39.697Z,997.54
2022-09-13T04:21:39.619Z,997.61
2022-09-13T04:22:39.629Z,997.62
2022-09-13T04:23:39.626Z,997.61
2022-09-13T04:24:39.617Z,997.62
2022-09-13T04:25:39.595Z,997.72
2022-09-13T04:26:39.563Z,997.69
2022-09-13T04:27:39.571Z,997.66
2022-09-13T04:28:39.541Z,997.66
2022-09-13T04:29:39.542Z,997.73
2022-09-13T04:30:42.638Z,997.62
2022-09-13T04:31:39.595Z,997.66
2022-09-13T04:32:39.527Z,997.61
2022-09-13T04:33:39.488Z,997.60
2022-09-13T04:34:39.480Z,997.58
2022-09-13T04:35:39.500Z,997.60
2022-09-13T04:36:39.473Z,997.53
2022-09-13T04:37:39.455Z,997.57
2022-09-13T04:38:39.466Z,997.58
2022-09-13T04:39:39.513Z,997.63
2022-09-13T04:40:39.455Z,997.60
2022-09-13T04:41:39.399Z,997.58
2022-09-13T04:42:39.395Z,997.62
2022-09-13T04:43:39.393Z,997.60
2022-09-13T04:44:39.366Z,997.58
2022-09-13T04:45:39.394Z,997.64
2022-09-13T04:46:39.345Z,997.59
2022-09-13T04:47:39.347Z,997.59
2022-09-13T04:48:39.332Z,997.54
2022-09-13T04:49:39.356Z,997.58
2022-09-13T04:50:39.333Z,997.54
2022-09-13T04:51:39.289Z,997.58
2022-09-13T04:52:39.401Z,997.52
2022-09-13T04:53:39.303Z,997.51
2022-09-13T04:54:39.271Z,997.47
2022-09-13T04:55:39.267Z,997.44
2022-09-13T04:56:39.252Z,997.39
2022-09-13T04:57:39.246Z,997.47
2022-09-13T04:58:39.224Z,997.49
2022-09-13T04:59:39.216Z,997.47
2022-09-13T05:00:39.200Z,997.49
2022-09-13T05:01:39.302Z,997.50
2022-09-13T05:02:39.180Z,997.47
2022-09-13T05:03:39.166Z,997.47
2022-09-13T05:04:39.171Z,997.45
2022-09-13T05:05:39.139Z,997.41
2022-09-13T05:06:39.151Z,997.41
2022-09-13T05:07:39.141Z,997.42
2022-09-13T05:08:39.129Z,997.44
2022-09-13T05:09:39.109Z,997.38
2022-09-13T05:10:39.097Z,997.41
2022-09-13T05:11:39.077Z,997.37
2022-09-13T05:12:39.083Z,997.40
2022-09-13T05:13:39.087Z,997.39
2022-09-13T05:14:39.098Z,997.37
2022-09-13T05:15:39.067Z,997.47
2022-09-13T05:16:39.019Z,997.42
2022-09-13T05:17:39.020Z,997.31
2022-09-13T05:18:43.157Z,997.30
2022-09-13T05:19:39.000Z,997.29
2022-09-13T05:20:38.977Z,997.28
2022-09-13T05:21:38.965Z,997.22
2022-09-13T05:22:38.990Z,997.26
2022-09-13T05:23:38.959Z,997.21
2022-09-13T05:24:39.038Z,997.22
2022-09-13T05:25:38.952Z,997.22
2022-09-13T05:26:38.928Z,997.24
2022-09-13T05:27:38.921Z,997.25
2022-09-13T05:28:38.891Z,997.24
2022-09-13T05:29:38.902Z,997.27
2022-09-13T05:30:42.218Z,997.31
2022-09-13T05:31:38.969Z,997.28
2022-09-13T05:32:38.862Z,997.28
2022-09-13T05:33:38.909Z,997.24
2022-09-13T05:34:38.861Z,997.21
2022-09-13T05:35:38.827Z,997.23
2022-09-13T05:36:38.801Z,997.25
2022-09-13T05:37:38.789Z,997.28
2022-09-13T05:38:38.783Z,997.23
2022-09-13T05:40:00.312Z,997.27
2022-09-13T05:40:39.931Z,997.30
2022-09-13T05:41:38.758Z,997.32
2022-09-13T05:42:38.762Z,997.36
2022-09-13T05:43:38.726Z,997.29
2022-09-13T05:44:38.735Z,997.28
2022-09-13T05:45:38.723Z,997.30
2022-09-13T05:46:38.802Z,997.28
2022-09-13T05:47:38.715Z,997.32
2022-09-13T05:48:38.681Z,997.33
2022-09-13T05:49:55.306Z,997.35
2022-09-13T05:50:57.887Z,997.35
2022-09-13T05:51:39.651Z,997.33
2022-09-13T05:52:38.645Z,997.32
2022-09-13T05:53:38.632Z,997.28
2022-09-13T05:54:38.609Z,997.28
2022-09-13T05:55:38.603Z,997.23
2022-09-13T05:56:38.696Z,997.21
2022-09-13T05:57:38.580Z,997.21
2022-09-13T05:58:38.621Z,997.23
2022-09-13T05:59:38.574Z,997.23
2022-09-13T06:00:38.605Z,997.21
2022-09-13T06:01:38.605Z,997.20
2022-09-13T06:02:38.586Z,997.24
2022-09-13T06:03:38.509Z,997.20
2022-09-13T06:04:38.508Z,997.17
2022-09-13T06:05:38.529Z,997.10
2022-09-13T06:06:38.476Z,997.10
2022-09-13T06:07:38.494Z,997.07
2022-09-13T06:08:38.484Z,997.03
2022-09-13T06:09:38.452Z,997.06
2022-09-13T06:10:38.443Z,997.12
2022-09-13T06:11:38.415Z,997.09
2022-09-13T06:12:38.427Z,997.10
2022-09-13T06:13:38.426Z,997.10
2022-09-13T06:14:38.389Z,997.10
2022-09-13T06:15:43.113Z,997.14
2022-09-13T06:16:38.457Z,997.14
2022-09-13T06:17:38.381Z,997.12
2022-09-13T06:18:38.345Z,997.12
2022-09-13T06:19:38.332Z,997.25
2022-09-13T06:20:38.322Z,997.20
2022-09-13T06:21:38.324Z,997.21
2022-09-13T06:22:38.313Z,997.33
2022-09-13T06:23:38.353Z,997.29
2022-09-13T06:24:38.282Z,997.35
2022-09-13T06:25:38.276Z,997.39
2022-09-13T06:26:38.317Z,997.33
2022-09-13T06:27:38.257Z,997.40
2022-09-13T06:28:38.265Z,997.39
2022-09-13T06:29:38.231Z,997.38
2022-09-13T06:30:38.223Z,997.32
2022-09-13T06:31:38.255Z,997.31
2022-09-13T06:32:38.190Z,997.36
2022-09-13T06:33:38.189Z,997.46
2022-09-13T06:34:38.164Z,997.46
2022-09-13T06:35:38.175Z,997.59
2022-09-13T06:36:38.141Z,997.62
2022-09-13T06:37:38.130Z,997.58
2022-09-13T06:38:38.137Z,997.57
2022-09-13T06:39:38.127Z,997.60
2022-09-13T06:40:38.109Z,997.53
2022-09-13T06:41:38.143Z,997.49
2022-09-13T06:42:38.075Z,997.50
2022-09-13T06:43:38.061Z,997.51
2022-09-13T06:44:38.083Z,997.44
2022-09-13T06:45:38.059Z,997.47
2022-09-13T06:46:38.096Z,997.51
2022-09-13T06:47:38.043Z,997.46
2022-09-13T06:48:38.128Z,997.48
2022-09-13T06:49:37.997Z,997.46
2022-09-13T06:50:38.002Z,997.50
2022-09-13T06:51:37.994Z,997.38
2022-09-13T06:52:37.968Z,997.38
2022-09-13T06:53:37.953Z,997.40
2022-09-13T06:54:37.960Z,997.36
2022-09-13T06:55:37.931Z,997.32
2022-09-13T06:56:37.956Z,997.24
2022-09-13T06:57:37.928Z,997.25
2022-09-13T06:58:38.000Z,997.31
2022-09-13T06:59:37.886Z,997.33
2022-09-13T07:00:37.956Z,997.37
2022-09-13T07:01:38.034Z,997.32
2022-09-13T07:02:37.863Z,997.26
2022-09-13T07:03:37.872Z,997.25
2022-09-13T07:04:37.833Z,997.28
2022-09-13T07:05:37.835Z,997.28
2022-09-13T07:06:37.809Z,997.29
2022-09-13T07:07:37.810Z,997.34
2022-09-13T07:08:37.821Z,997.35
2022-09-13T07:09:37.792Z,997.40
2022-09-13T07:10:37.775Z,997.41
2022-09-13T07:11:37.758Z,997.40
2022-09-13T07:12:37.767Z,997.33
2022-09-13T07:13:37.753Z,997.33
2022-09-13T07:14:37.750Z,997.35
2022-09-13T07:15:37.772Z,997.35
2022-09-13T07:16:37.721Z,997.37
2022-09-13T07:17:37.706Z,997.40
2022-09-13T07:18:37.821Z,997.41
2022-09-13T07:19:37.673Z,997.34
2022-09-13T07:20:37.687Z,997.33
2022-09-13T07:21:37.663Z,997.39
2022-09-13T07:22:37.659Z,997.36
2022-09-13T07:23:37.631Z,997.33
2022-09-13T07:24:37.619Z,997.35
2022-09-13T07:25:37.651Z,997.27
2022-09-13T07:26:37.624Z,997.35
2022-09-13T07:27:37.579Z,997.33
2022-09-13T07:28:37.569Z,997.30
2022-09-13T07:29:37.557Z,997.25
2022-09-13T07:30:37.552Z,997.26
2022-09-13T07:31:37.551Z,997.28
2022-09-13T07:32:37.627Z,997.21
2022-09-13T07:33:37.510Z,997.23
2022-09-13T07:34:37.511Z,997.26
2022-09-13T07:35:37.497Z,997.24
2022-09-13T07:36:37.493Z,997.22
2022-09-13T07:37:37.496Z,997.22
2022-09-13T07:38:37.561Z,997.28
2022-09-13T07:39:37.444Z,997.30
2022-09-13T07:40:37.442Z,997.29
2022-09-13T07:41:37.429Z,997.39
2022-09-13T07:42:37.429Z,997.30
2022-09-13T07:43:37.427Z,997.32
2022-09-13T07:44:39.073Z,997.29
2022-09-13T07:45:37.389Z,997.25
2022-09-13T07:46:37.420Z,997.23
2022-09-13T07:47:37.387Z,997.21
2022-09-13T07:48:37.470Z,997.15
2022-09-13T07:49:37.359Z,997.06
2022-09-13T07:50:37.336Z,997.09
2022-09-13T07:51:37.321Z,997.10
2022-09-13T07:52:37.335Z,997.15
2022-09-13T07:53:37.335Z,997.24
2022-09-13T07:54:37.318Z,997.28
2022-09-13T07:55:37.268Z,997.27
2022-09-13T07:56:37.269Z,997.23
2022-09-13T07:57:37.255Z,997.25
2022-09-13T07:58:37.371Z,997.28
2022-09-13T07:59:37.242Z,997.26
2022-09-13T08:00:37.226Z,997.27
2022-09-13T08:01:37.329Z,997.23
2022-09-13T08:02:37.238Z,997.23
2022-09-13T08:03:37.263Z,997.15
2022-09-13T08:04:37.244Z,997.20
2022-09-13T08:05:37.185Z,997.16
2022-09-13T08:06:37.147Z,997.17
2022-09-13T08:07:37.203Z,997.16
2022-09-13T08:08:37.128Z,997.16
2022-09-13T08:09:37.146Z,997.22
2022-09-13T08:10:37.108Z,997.19
2022-09-13T08:11:37.118Z,997.16
2022-09-13T08:12:37.143Z,997.20
2022-09-13T08:13:37.073Z,997.20
2022-09-13T08:14:37.088Z,997.25
2022-09-13T08:15:37.063Z,997.23
2022-09-13T08:16:37.079Z,997.23
2022-09-13T08:17:37.060Z,997.24
2022-09-13T08:18:37.013Z,997.26
2022-09-13T08:19:37.018Z,997.27
2022-09-13T08:20:37.104Z,997.29
2022-09-13T08:21:37.008Z,997.29
2022-09-13T08:22:36.980Z,997.28
2022-09-13T08:23:36.981Z,997.29
2022-09-13T08:24:36.956Z,997.31
2022-09-13T08:25:36.937Z,997.37
2022-09-13T08:26:36.936Z,997.34
2022-09-13T08:27:36.944Z,997.30
2022-09-13T08:28:36.916Z,997.36
2022-09-13T08:29:36.891Z,997.27
2022-09-13T08:30:36.898Z,997.28
2022-09-13T08:31:36.871Z,997.28
2022-09-13T08:32:36.895Z,997.25
2022-09-13T08:33:36.854Z,997.23
2022-09-13T08:34:36.851Z,997.15
2022-09-13T08:35:36.828Z,997.16
2022-09-13T08:36:36.840Z,997.15
2022-09-13T08:37:36.821Z,997.15
2022-09-13T08:38:36.819Z,997.10
2022-09-13T08:39:36.792Z,997.17
2022-09-13T08:40:36.795Z,997.17
2022-09-13T08:41:36.760Z,997.18
2022-09-13T08:42:36.771Z,997.12
2022-09-13T08:43:36.752Z,997.13
2022-09-13T08:44:36.763Z,997.07
2022-09-13T08:45:36.730Z,997.07
2022-09-13T08:46:36.819Z,997.09
2022-09-13T08:47:36.768Z,997.10
2022-09-13T08:48:36.693Z,997.15
2022-09-13T08:49:36.693Z,997.12
2022-09-13T08:50:36.663Z,997.20
2022-09-13T08:51:36.686Z,997.17
2022-09-13T08:52:36.760Z,997.16
2022-09-13T08:53:36.676Z,997.19
2022-09-13T08:54:36.625Z,997.12
2022-09-13T08:55:36.640Z,997.15
2022-09-13T08:56:36.615Z,997.12
2022-09-13T08:57:36.630Z,997.17
2022-09-13T08:58:36.590Z,997.09
2022-09-13T08:59:36.574Z,997.09
2022-09-13T09:00:36.558Z,997.11
2022-09-13T09:01:36.634Z,997.05
2022-09-13T09:02:36.579Z,997.09
2022-09-13T09:03:36.547Z,997.07
2022-09-13T09:04:36.507Z,997.04
2022-09-13T09:05:36.517Z,997.07
2022-09-13T09:06:36.496Z,997.08
2022-09-13T09:07:36.504Z,997.08
2022-09-13T09:08:36.583Z,997.07
2022-09-13T09:09:36.477Z,997.11
2022-09-13T09:10:36.484Z,997.02
2022-09-13T09:11:36.434Z,997.02
2022-09-13T09:12:36.459Z,997.03
2022-09-13T09:13:36.440Z,997.02
2022-09-13T09:14:36.426Z,997.04
2022-09-13T09:15:36.482Z,997.02
2022-09-13T09:16:36.388Z,996.98
2022-09-13T09:17:36.458Z,996.99
2022-09-13T09:18:36.356Z,997.03
2022-09-13T09:19:36.364Z,997.02
2022-09-13T09:20:36.392Z,996.95
2022-09-13T09:21:36.358Z,996.97
2022-09-13T09:22:36.350Z,996.99
2022-09-13T09:23:36.301Z,997.04
2022-09-13T09:24:36.306Z,997.05
2022-09-13T09:25:36.333Z,997.02
2022-09-13T09:26:36.300Z,996.95
2022-09-13T09:27:36.257Z,997.02
2022-09-13T09:28:36.251Z,997.00
2022-09-13T09:29:36.267Z,996.96
2022-09-13T09:30:36.299Z,996.96
2022-09-13T09:31:36.221Z,996.93
2022-09-13T09:32:36.242Z,996.96
2022-09-13T09:33:36.191Z,996.97
2022-09-13T09:34:36.182Z,996.92
2022-09-13T09:35:36.203Z,996.86
2022-09-13T09:36:36.170Z,996.89
2022-09-13T09:37:36.162Z,996.82
2022-09-13T09:38:36.187Z,996.84
2022-09-13T09:39:36.149Z,996.84
2022-09-13T09:40:36.311Z,996.85
2022-09-13T09:41:36.118Z,996.80
2022-09-13T09:42:36.106Z,996.79
2022-09-13T09:43:36.084Z,996.84
2022-09-13T09:44:36.090Z,996.85
2022-09-13T09:45:36.065Z,996.83
2022-09-13T09:46:36.048Z,996.85
2022-09-13T09:47:36.053Z,996.87
2022-09-13T09:48:36.056Z,996.89
2022-09-13T09:49:36.053Z,996.90
2022-09-13T09:50:36.015Z,996.83
2022-09-13T09:51:35.995Z,996.88
2022-09-13T09:52:35.999Z,996.89
2022-09-13T09:53:37.181Z,996.89
2022-09-13T09:54:36.000Z,996.90
2022-09-13T09:55:35.965Z,996.81
2022-09-13T09:56:36.040Z,996.82
2022-09-13T09:57:35.962Z,996.82
2022-09-13T09:58:35.941Z,996.74
2022-09-13T09:59:35.934Z,996.74
2022-09-13T10:00:35.924Z,996.69
2022-09-13T10:01:35.922Z,996.71
2022-09-13T10:02:35.934Z,996.78
2022-09-13T10:03:35.885Z,996.72
2022-09-13T10:04:35.869Z,996.76
2022-09-13T10:05:35.870Z,996.76
2022-09-13T10:06:35.830Z,996.69
2022-09-13T10:07:35.829Z,996.73
2022-09-13T10:08:35.841Z,996.72
2022-09-13T10:09:35.800Z,996.66
2022-09-13T10:10:35.791Z,996.64
2022-09-13T10:11:35.802Z,996.71
2022-09-13T10:12:35.832Z,996.66
2022-09-13T10:13:35.766Z,996.67
2022-09-13T10:14:35.783Z,996.70
2022-09-13T10:15:35.740Z,996.63
2022-09-13T10:16:35.832Z,996.65
2022-09-13T10:17:35.714Z,996.61
2022-09-13T10:18:44.836Z,996.57
2022-09-13T10:19:36.690Z,996.56
2022-09-13T10:20:35.725Z,996.55
2022-09-13T10:21:35.673Z,996.58
2022-09-13T10:22:35.687Z,996.54
2022-09-13T10:23:35.675Z,996.51
2022-09-13T10:24:35.641Z,996.53
2022-09-13T10:25:35.649Z,996.52
2022-09-13T10:26:35.611Z,996.57
2022-09-13T10:27:35.674Z,996.50
2022-09-13T10:28:35.621Z,996.48
2022-09-13T10:29:35.591Z,996.47
2022-09-13T10:30:35.675Z,996.55
2022-09-13T10:31:35.578Z,996.41
2022-09-13T10:32:35.562Z,996.47
2022-09-13T10:33:35.556Z,996.45
2022-09-13T10:34:35.668Z,996.50
2022-09-13T10:35:35.517Z,996.51
2022-09-13T10:36:51.757Z,996.47
2022-09-13T10:37:36.496Z,996.42
2022-09-13T10:38:35.502Z,996.47
2022-09-13T10:39:35.564Z,996.35
2022-09-13T10:40:35.474Z,996.40
2022-09-13T10:41:35.459Z,996.38
2022-09-13T10:42:35.455Z,996.35
2022-09-13T10:43:35.465Z,996.37
2022-09-13T10:44:35.483Z,996.40
2022-09-13T10:45:35.469Z,996.40
2022-09-13T10:46:35.403Z,996.39
2022-09-13T10:47:35.390Z,996.36
2022-09-13T10:48:35.390Z,996.40
2022-09-13T10:49:35.391Z,996.35
2022-09-13T10:50:35.361Z,996.46
2022-09-13T10:51:35.368Z,996.47
2022-09-13T10:52:35.336Z,996.39
2022-09-13T10:53:35.395Z,996.38
2022-09-13T10:54:35.323Z,996.42
2022-09-13T10:55:35.302Z,996.34
2022-09-13T10:56:35.453Z,996.39
2022-09-13T10:57:35.282Z,996.38
2022-09-13T10:58:35.264Z,996.38
2022-09-13T10:59:35.271Z,996.38
2022-09-13T11:00:35.302Z,996.35
2022-09-13T11:01:40.140Z,996.38
2022-09-13T11:02:35.285Z,996.35
2022-09-13T11:03:35.258Z,996.39
2022-09-13T11:04:35.253Z,996.37
2022-09-13T11:05:35.213Z,996.34
2022-09-13T11:06:35.199Z,996.39
2022-09-13T11:07:35.186Z,996.39
2022-09-13T11:08:35.172Z,996.38
2022-09-13T11:09:35.902Z,996.39
2022-09-13T11:10:35.135Z,996.37
2022-09-13T11:11:35.132Z,996.35
2022-09-13T11:12:35.150Z,996.30
2022-09-13T11:13:35.123Z,996.27
2022-09-13T11:14:35.107Z,996.25
2022-09-13T11:15:35.084Z,996.24
2022-09-13T11:16:35.143Z,996.22
2022-09-13T11:17:35.068Z,996.27
2022-09-13T11:18:35.075Z,996.22
2022-09-13T11:19:35.063Z,996.19
2022-09-13T11:20:35.024Z,996.17
2022-09-13T11:21:35.016Z,996.15
2022-09-13T11:22:35.021Z,996.17
2022-09-13T11:23:35.004Z,996.23
2022-09-13T11:24:35.011Z,996.15
2022-09-13T11:25:35.026Z,996.19
2022-09-13T11:26:38.352Z,996.14
2022-09-13T11:27:34.953Z,996.20
2022-09-13T11:28:34.951Z,996.17
2022-09-13T11:29:34.944Z,996.15
2022-09-13T11:30:34.982Z,996.11
2022-09-13T11:31:34.933Z,996.10
2022-09-13T11:32:34.934Z,996.08
2022-09-13T11:33:34.888Z,996.04
2022-09-13T11:34:34.889Z,996.07
2022-09-13T11:35:34.884Z,996.11
2022-09-13T11:36:34.863Z,996.02
2022-09-13T11:37:34.874Z,996.02
2022-09-13T11:38:34.838Z,995.99
2022-09-13T11:39:34.822Z,996.00
2022-09-13T11:40:34.833Z,995.97
2022-09-13T11:41:34.802Z,996.02
2022-09-13T11:42:34.798Z,995.97
2022-09-13T11:43:34.800Z,995.97
2022-09-13T11:44:34.783Z,995.94
2022-09-13T11:45:34.829Z,995.94
2022-09-13T11:46:34.751Z,995.93
2022-09-13T11:47:34.826Z,995.85
2022-09-13T11:48:34.835Z,995.79
2022-09-13T11:49:34.746Z,995.81
2022-09-13T11:50:34.759Z,995.78
2022-09-13T11:51:34.721Z,995.81
2022-09-13T11:52:34.696Z,995.80
2022-09-13T11:53:34.669Z,995.76
2022-09-13T11:54:34.699Z,995.74
2022-09-13T11:55:34.677Z,995.73
2022-09-13T11:56:34.670Z,995.79
2022-09-13T11:57:34.633Z,995.82
2022-09-13T11:58:34.672Z,995.79
2022-09-13T11:59:34.606Z,995.77
2022-09-13T12:00:34.618Z,995.75
2022-09-13T12:01:34.586Z,995.75
2022-09-13T12:02:34.704Z,995.80
2022-09-13T12:03:34.566Z,995.80
2022-09-13T12:04:34.618Z,995.78
2022-09-13T12:05:34.581Z,995.78
2022-09-13T12:06:34.531Z,995.72
2022-09-13T12:07:34.522Z,995.70
2022-09-13T12:08:34.510Z,995.78
2022-09-13T12:09:34.517Z,995.78
2022-09-13T12:10:34.499Z,995.77
2022-09-13T12:11:34.509Z,995.78
2022-09-13T12:12:34.517Z,995.75
2022-09-13T12:13:34.527Z,995.75
2022-09-13T12:14:34.474Z,995.71
2022-09-13T12:15:34.442Z,995.70
2022-09-13T12:16:36.387Z,995.70
2022-09-13T12:17:34.489Z,995.75
2022-09-13T12:18:34.402Z,995.73
2022-09-13T12:19:34.416Z,995.70
2022-09-13T12:20:34.398Z,995.71
2022-09-13T12:21:34.386Z,995.65
2022-09-13T12:22:34.376Z,995.65
2022-09-13T12:23:34.408Z,995.66
2022-09-13T12:24:34.349Z,995.64
2022-09-13T12:25:34.354Z,995.64
2022-09-13T12:26:34.343Z,995.65
2022-09-13T12:27:39.182Z,995.71
2022-09-13T12:28:34.332Z,995.67